Terminal Aerodrome Forecast
Issued by NWS Sioux Falls, SD

Home | Current Version | Previous Version | Graphics & Text | Print | Product List | Glossary On
Versions: 1 2 3 4 5 6 7 8 9 10 11 12 13 14 15 16 17 18 19 20 21 22 23 24 25 26
708
FTUS43 KFSD 081830
TAFSUX
TAF
KSUX 081830Z 0818/0918 32018KT P6SM FEW250
     FM090000 31010KT P6SM FEW250
     FM090800 31006KT P6SM FEW250
     FM091500 00000KT P6SM BKN120=

USA.gov is the U.S. government's official web portal to all federal, state and local government web resources and services.